Time,TemperatureF,DewpointF,PressureIn,WindDirection,WindDirectionDegrees,WindSpeedMPH,WindSpeedGustMPH,Humidity,HourlyPrecipIn,Conditions,Clouds,dailyrainin,SoftwareType,DateUTC
2013-01-02 00:02:00,34.5,27.1,29.90,West,280,6.0,6.0,74,0.00,,,0.12,meteohub,2013-01-02 05:02:00,
2013-01-02 00:07:00,34.3,27.0,29.90,NNW,348,2.0,9.0,74,0.00,,,0.00,meteohub,2013-01-02 05:07:00,
2013-01-02 00:12:00,34.3,27.0,29.90,NE,55,3.0,9.0,74,0.00,,,0.00,meteohub,2013-01-02 05:12:00,
2013-01-02 00:17:00,34.2,26.8,29.90,South,190,6.0,9.0,74,0.00,,,0.00,meteohub,2013-01-02 05:17:00,
2013-01-02 00:22:00,34.3,27.0,29.90,WSW,258,4.0,9.0,74,0.00,,,0.00,meteohub,2013-01-02 05:22:00,
2013-01-02 00:27:00,34.3,27.0,29.90,SSW,212,6.0,9.0,74,0.00,,,0.00,meteohub,2013-01-02 05:27:00,
2013-01-02 00:32:00,34.3,27.0,29.90,SSW,212,3.0,8.0,74,0.00,,,0.00,meteohub,2013-01-02 05:32:00,
2013-01-02 00:37:00,34.3,27.0,29.90,SW,235,4.0,8.0,74,0.00,,,0.00,meteohub,2013-01-02 05:37:00,
2013-01-02 00:42:00,34.2,26.8,29.87,WSW,258,4.0,8.0,74,0.00,,,0.00,meteohub,2013-01-02 05:42:00,
2013-01-02 00:47:00,34.0,26.6,29.87,SSW,212,4.0,7.0,74,0.00,,,0.00,meteohub,2013-01-02 05:47:00,
2013-01-02 00:52:00,34.2,26.8,29.87,WSW,258,5.0,7.0,74,0.00,,,0.00,meteohub,2013-01-02 05:52:00,
2013-01-02 00:57:00,34.2,26.8,29.87,SSE,168,3.0,7.0,74,0.00,,,0.00,meteohub,2013-01-02 05:57:00,
2013-01-02 01:02:00,34.2,26.8,29.87,NNE,32,0.0,11.0,74,0.00,,,0.00,meteohub,2013-01-02 06:02:00,
2013-01-02 01:07:00,34.2,26.8,29.87,NE,55,3.0,11.0,74,0.00,,,0.00,meteohub,2013-01-02 06:07:00,
2013-01-02 01:12:00,34.0,26.6,29.90,SE,145,5.0,11.0,74,0.00,,,0.00,meteohub,2013-01-02 06:12:00,
2013-01-02 01:17:00,34.0,26.6,29.90,ESE,122,2.0,8.0,74,0.00,,,0.00,meteohub,2013-01-02 06:17:00,
2013-01-02 01:22:00,34.0,26.6,29.90,NW,325,5.0,9.0,74,0.00,,,0.00,meteohub,2013-01-02 06:22:00,
2013-01-02 01:27:00,34.0,26.6,29.87,North,10,5.0,9.0,74,0.00,,,0.00,meteohub,2013-01-02 06:27:00,
2013-01-02 01:32:00,34.0,26.6,29.87,SE,145,2.0,8.0,74,0.00,,,0.00,meteohub,2013-01-02 06:32:00,
2013-01-02 01:37:00,34.0,26.6,29.87,South,190,2.0,6.0,74,0.00,,,0.00,meteohub,2013-01-02 06:37:00,
2013-01-02 01:42:00,33.8,26.4,29.90,ESE,122,2.0,7.0,74,0.00,,,0.00,meteohub,2013-01-02 06:42:00,
2013-01-02 01:47:00,34.0,26.6,29.90,North,10,6.0,8.0,74,0.00,,,0.00,meteohub,2013-01-02 06:47:00,
2013-01-02 01:52:00,34.0,26.6,29.90,South,190,5.0,8.0,74,0.00,,,0.00,meteohub,2013-01-02 06:52:00,
2013-01-02 01:57:00,34.0,26.6,29.90,NNW,348,5.0,8.0,74,0.00,,,0.00,meteohub,2013-01-02 06:57:00,
2013-01-02 02:02:00,34.0,26.6,29.90,South,190,4.0,8.0,74,0.00,,,0.00,meteohub,2013-01-02 07:02:00,
2013-01-02 02:07:00,34.0,26.6,29.90,SSE,168,6.0,9.0,74,0.00,,,0.00,meteohub,2013-01-02 07:07:00,
2013-01-02 02:17:00,34.0,26.6,29.90,SW,235,3.0,12.0,74,0.00,,,0.00,meteohub,2013-01-02 07:17:00,
2013-01-02 02:22:00,34.0,26.6,29.90,SSE,168,7.0,12.0,74,0.00,,,0.00,meteohub,2013-01-02 07:22:00,
2013-01-02 02:27:00,34.0,26.6,29.90,South,190,0.0,12.0,74,0.00,,,0.00,meteohub,2013-01-02 07:27:00,
2013-01-02 02:32:00,34.2,26.8,29.90,South,190,5.0,8.0,74,0.00,,,0.00,meteohub,2013-01-02 07:32:00,
2013-01-02 02:37:00,34.2,26.8,29.90,SSW,212,0.0,8.0,74,0.00,,,0.00,meteohub,2013-01-02 07:37:00,
2013-01-02 02:42:00,34.0,26.6,29.90,South,190,2.0,8.0,74,0.00,,,0.00,meteohub,2013-01-02 07:42:00,
2013-01-02 02:47:00,34.2,26.4,29.90,SSW,212,11.0,11.0,73,0.00,,,0.00,meteohub,2013-01-02 07:47:00,
2013-01-02 02:52:00,34.0,26.2,29.90,SSE,168,2.0,11.0,73,0.00,,,0.00,meteohub,2013-01-02 07:52:00,
2013-01-02 02:57:00,34.3,26.6,29.90,South,190,3.0,11.0,73,0.00,,,0.00,meteohub,2013-01-02 07:57:00,
2013-01-02 03:02:00,34.2,26.4,29.90,WNW,302,2.0,11.0,73,0.00,,,0.00,meteohub,2013-01-02 08:02:00,
2013-01-02 03:07:00,34.2,26.1,29.90,East,100,0.0,4.0,72,0.00,,,0.00,meteohub,2013-01-02 08:07:00,
2013-01-02 03:12:00,34.3,26.2,29.90,South,190,0.0,4.0,72,0.00,,,0.00,meteohub,2013-01-02 08:12:00,
2013-01-02 03:17:00,34.3,26.6,29.90,East,100,0.0,3.0,73,0.00,,,0.00,meteohub,2013-01-02 08:17:00,
2013-01-02 03:22:00,34.0,25.9,29.90,SSW,212,0.0,4.0,72,0.00,,,0.00,meteohub,2013-01-02 08:22:00,
2013-01-02 03:27:00,34.2,25.7,29.90,SW,235,2.0,4.0,71,0.00,,,0.00,meteohub,2013-01-02 08:27:00,
2013-01-02 03:32:00,34.2,25.7,29.90,SSW,212,4.0,4.0,71,0.00,,,0.00,meteohub,2013-01-02 08:32:00,
2013-01-02 03:37:00,34.0,25.5,29.90,North,10,5.0,5.0,71,0.00,,,0.00,meteohub,2013-01-02 08:37:00,
2013-01-02 03:47:00,34.0,25.3,29.90,WSW,258,3.0,9.0,70,0.00,,,0.00,meteohub,2013-01-02 08:47:00,
2013-01-02 03:52:00,34.0,25.3,29.90,SSE,168,3.0,9.0,70,0.00,,,0.00,meteohub,2013-01-02 08:52:00,
2013-01-02 03:57:00,33.8,25.2,29.87,South,190,3.0,8.0,70,0.00,,,0.00,meteohub,2013-01-02 08:57:00,
2013-01-02 04:07:00,34.0,25.3,29.87,SSE,168,2.0,8.0,70,0.00,,,0.00,meteohub,2013-01-02 09:07:00,
2013-01-02 04:17:00,33.8,24.8,29.87,WNW,302,0.0,4.0,69,0.00,,,0.00,meteohub,2013-01-02 09:17:00,
2013-01-02 04:22:00,33.8,24.8,29.87,NNW,348,5.0,5.0,69,0.00,,,0.00,meteohub,2013-01-02 09:22:00,
2013-01-02 04:27:00,33.8,24.8,29.87,WNW,302,2.0,7.0,69,0.00,,,0.00,meteohub,2013-01-02 09:27:00,
2013-01-02 04:32:00,33.8,24.8,29.87,WNW,302,3.0,7.0,69,0.00,,,0.00,meteohub,2013-01-02 09:32:00,
2013-01-02 04:37:00,33.8,24.8,29.87,North,10,0.0,6.0,69,0.00,,,0.00,meteohub,2013-01-02 09:37:00,
2013-01-02 04:42:00,33.8,24.8,29.87,NW,325,0.0,5.0,69,0.00,,,0.00,meteohub,2013-01-02 09:42:00,
2013-01-02 04:47:00,33.8,24.4,29.87,WNW,302,0.0,5.0,68,0.00,,,0.00,meteohub,2013-01-02 09:47:00,
2013-01-02 04:52:00,33.8,24.4,29.87,WNW,302,7.0,7.0,68,0.00,,,0.00,meteohub,2013-01-02 09:52:00,
2013-01-02 04:57:00,33.6,24.6,29.87,SW,235,0.0,5.0,69,0.00,,,0.00,meteohub,2013-01-02 09:57:00,
2013-01-02 05:02:00,33.6,24.6,29.87,WNW,302,5.0,8.0,69,0.00,,,0.00,meteohub,2013-01-02 10:02:00,
2013-01-02 05:07:00,33.6,24.6,29.87,SSW,212,4.0,9.0,69,0.00,,,0.00,meteohub,2013-01-02 10:07:00,
2013-01-02 05:12:00,33.3,23.9,29.90,NW,325,5.0,9.0,68,0.00,,,0.00,meteohub,2013-01-02 10:12:00,
2013-01-02 05:17:00,33.3,23.9,29.90,SSW,212,12.0,21.0,68,0.00,,,0.00,meteohub,2013-01-02 10:17:00,
2013-01-02 05:22:00,33.3,23.9,29.90,WSW,258,8.0,21.0,68,0.00,,,0.00,meteohub,2013-01-02 10:22:00,
2013-01-02 05:27:00,33.3,24.3,29.93,WNW,302,9.0,15.0,69,0.00,,,0.00,meteohub,2013-01-02 10:27:00,
2013-01-02 05:32:00,33.1,24.1,29.93,NNW,348,5.0,12.0,69,0.00,,,0.00,meteohub,2013-01-02 10:32:00,
2013-01-02 05:37:00,33.1,24.1,29.93,SSW,212,7.0,11.0,69,0.00,,,0.00,meteohub,2013-01-02 10:37:00,
2013-01-02 05:42:00,33.1,23.7,29.93,WNW,302,11.0,11.0,68,0.00,,,0.00,meteohub,2013-01-02 10:42:00,
2013-01-02 05:47:00,33.1,23.7,29.93,WNW,302,10.0,11.0,68,0.00,,,0.00,meteohub,2013-01-02 10:47:00,
2013-01-02 05:52:00,32.9,23.5,29.93,NW,325,7.0,13.0,68,0.00,,,0.00,meteohub,2013-01-02 10:52:00,
2013-01-02 05:57:00,33.1,24.1,29.93,SW,235,3.0,13.0,69,0.00,,,0.00,meteohub,2013-01-02 10:57:00,
2013-01-02 06:02:00,32.9,23.9,29.93,WNW,302,8.0,11.0,69,0.00,,,0.00,meteohub,2013-01-02 11:02:00,
2013-01-02 06:07:00,32.9,23.9,29.93,WNW,302,6.0,13.0,69,0.00,,,0.00,meteohub,2013-01-02 11:07:00,
2013-01-02 06:12:00,33.1,24.1,29.93,West,280,3.0,13.0,69,0.00,,,0.00,meteohub,2013-01-02 11:12:00,
2013-01-02 06:17:00,32.9,23.9,29.93,NNW,348,7.0,13.0,69,0.00,,,0.00,meteohub,2013-01-02 11:17:00,
2013-01-02 06:22:00,32.7,23.7,29.93,WNW,302,5.0,12.0,69,0.00,,,0.00,meteohub,2013-01-02 11:22:00,
2013-01-02 06:27:00,32.7,23.7,29.93,North,10,7.0,12.0,69,0.00,,,0.00,meteohub,2013-01-02 11:27:00,
2013-01-02 06:32:00,32.5,23.5,29.93,WSW,258,6.0,22.0,69,0.00,,,0.00,meteohub,2013-01-02 11:32:00,
2013-01-02 06:37:00,32.5,23.5,29.93,WSW,258,7.0,22.0,69,0.00,,,0.00,meteohub,2013-01-02 11:37:00,
2013-01-02 06:42:00,32.4,23.4,29.93,NW,325,6.0,22.0,69,0.00,,,0.00,meteohub,2013-01-02 11:42:00,
2013-01-02 06:47:00,32.5,23.5,29.93,West,280,13.0,17.0,69,0.00,,,0.00,meteohub,2013-01-02 11:47:00,
2013-01-02 06:52:00,32.4,23.4,29.93,WNW,302,12.0,13.0,69,0.00,,,0.00,meteohub,2013-01-02 11:52:00,
2013-01-02 06:57:00,32.4,23.4,29.96,WSW,258,9.0,13.0,69,0.00,,,0.00,meteohub,2013-01-02 11:57:00,
2013-01-02 07:02:00,32.2,23.2,29.96,West,280,7.0,13.0,69,0.00,,,0.00,meteohub,2013-01-02 12:02:00,
2013-01-02 07:07:00,32.2,23.2,29.96,WNW,302,3.0,13.0,69,0.00,,,0.00,meteohub,2013-01-02 12:07:00,
2013-01-02 07:12:00,32.2,23.2,29.96,WNW,302,4.0,13.0,69,0.00,,,0.00,meteohub,2013-01-02 12:12:00,
2013-01-02 07:17:00,32.0,23.0,29.96,NW,325,5.0,11.0,69,0.00,,,0.00,meteohub,2013-01-02 12:17:00,
2013-01-02 07:22:00,32.2,23.2,29.96,WNW,302,7.0,11.0,69,0.00,,,0.00,meteohub,2013-01-02 12:22:00,
2013-01-02 07:27:00,32.2,23.2,29.96,NW,325,5.0,11.0,69,0.00,,,0.00,meteohub,2013-01-02 12:27:00,
2013-01-02 07:32:00,32.0,22.6,29.96,NNW,348,5.0,13.0,68,0.00,,,0.00,meteohub,2013-01-02 12:32:00,
2013-01-02 07:37:00,32.0,22.6,29.96,WSW,258,2.0,13.0,68,0.00,,,0.00,meteohub,2013-01-02 12:37:00,
2013-01-02 07:42:00,32.0,22.6,29.96,WNW,302,8.0,11.0,68,0.00,,,0.00,meteohub,2013-01-02 12:42:00,
2013-01-02 07:47:00,31.8,22.1,29.96,North,10,12.0,13.0,67,0.00,,,0.00,meteohub,2013-01-02 12:47:00,
2013-01-02 07:52:00,31.8,22.1,29.96,NNW,348,8.0,16.0,67,0.00,,,0.00,meteohub,2013-01-02 12:52:00,
2013-01-02 07:57:00,31.8,22.1,29.96,East,100,5.0,16.0,67,0.00,,,0.00,meteohub,2013-01-02 12:57:00,
2013-01-02 08:02:00,31.6,21.6,29.96,West,280,2.0,17.0,66,0.00,,,0.00,meteohub,2013-01-02 13:02:00,
2013-01-02 08:07:00,31.5,21.0,29.96,WNW,302,9.0,17.0,65,0.00,,,0.00,meteohub,2013-01-02 13:07:00,
2013-01-02 08:12:00,31.5,21.0,29.99,WSW,258,3.0,17.0,65,0.00,,,0.00,meteohub,2013-01-02 13:12:00,
2013-01-02 08:17:00,31.6,21.2,29.99,WSW,258,7.0,17.0,65,0.00,,,0.00,meteohub,2013-01-02 13:17:00,
2013-01-02 08:22:00,31.5,21.0,29.99,West,280,11.0,17.0,65,0.00,,,0.00,meteohub,2013-01-02 13:22:00,
2013-01-02 08:27:00,31.5,21.0,29.99,WNW,302,9.0,12.0,65,0.00,,,0.00,meteohub,2013-01-02 13:27:00,
2013-01-02 08:32:00,31.5,21.0,29.99,WNW,302,5.0,12.0,65,0.00,,,0.00,meteohub,2013-01-02 13:32:00,
2013-01-02 08:37:00,31.3,20.8,29.99,WNW,302,9.0,13.0,65,0.00,,,0.00,meteohub,2013-01-02 13:37:00,
2013-01-02 08:42:00,31.1,20.3,29.99,NW,325,16.0,16.0,64,0.00,,,0.00,meteohub,2013-01-02 13:42:00,
2013-01-02 08:47:00,31.1,20.3,29.99,WNW,302,7.0,17.0,64,0.00,,,0.00,meteohub,2013-01-02 13:47:00,
2013-01-02 08:52:00,31.1,20.3,29.99,WNW,302,8.0,17.0,64,0.00,,,0.00,meteohub,2013-01-02 13:52:00,
2013-01-02 08:57:00,31.1,20.3,29.99,NW,325,8.0,17.0,64,0.00,,,0.00,meteohub,2013-01-02 13:57:00,
2013-01-02 09:02:00,31.1,20.3,29.99,North,10,12.0,13.0,64,0.00,,,0.00,meteohub,2013-01-02 14:02:00,
2013-01-02 09:07:00,30.9,20.1,29.99,WSW,258,8.0,13.0,64,0.00,,,0.00,meteohub,2013-01-02 14:07:00,
2013-01-02 09:12:00,30.9,19.8,29.99,South,190,5.0,15.0,63,0.00,,,0.00,meteohub,2013-01-02 14:12:00,
2013-01-02 09:17:00,30.9,19.4,29.99,WNW,302,8.0,15.0,62,0.00,,,0.00,meteohub,2013-01-02 14:17:00,
2013-01-02 09:22:00,31.1,19.9,29.99,SSW,212,6.0,15.0,63,0.00,,,0.00,meteohub,2013-01-02 14:22:00,
2013-01-02 09:27:00,31.3,19.8,29.99,NNW,348,13.0,13.0,62,0.00,,,0.00,meteohub,2013-01-02 14:27:00,
2013-01-02 09:32:00,31.1,18.9,29.99,SSW,212,3.0,13.0,60,0.00,,,0.00,meteohub,2013-01-02 14:32:00,
2013-01-02 09:37:00,31.3,19.0,29.99,NNW,348,5.0,13.0,60,0.00,,,0.00,meteohub,2013-01-02 14:37:00,
2013-01-02 09:42:00,31.6,19.4,29.99,WNW,302,5.0,13.0,60,0.00,,,0.00,meteohub,2013-01-02 14:42:00,
2013-01-02 09:47:00,31.6,19.4,29.99,North,10,4.0,9.0,60,0.00,,,0.00,meteohub,2013-01-02 14:47:00,
2013-01-02 09:52:00,31.5,18.9,29.99,West,280,3.0,8.0,59,0.00,,,0.00,meteohub,2013-01-02 14:52:00,
2013-01-02 09:57:00,31.3,17.4,29.99,WSW,258,4.0,8.0,56,0.00,,,0.00,meteohub,2013-01-02 14:57:00,
2013-01-02 10:02:00,31.5,17.6,29.99,WSW,258,11.0,11.0,56,0.00,,,0.00,meteohub,2013-01-02 15:02:00,
2013-01-02 10:07:00,31.6,17.4,29.99,West,280,3.0,11.0,55,0.00,,,0.00,meteohub,2013-01-02 15:07:00,
2013-01-02 10:12:00,31.6,17.4,29.99,ESE,122,4.0,11.0,55,0.00,,,0.00,meteohub,2013-01-02 15:12:00,
2013-01-02 10:17:00,31.8,16.7,29.99,WSW,258,5.0,11.0,53,0.00,,,0.00,meteohub,2013-01-02 15:17:00,
2013-01-02 10:22:00,31.6,16.0,29.99,North,10,8.0,12.0,52,0.00,,,0.00,meteohub,2013-01-02 15:22:00,
2013-01-02 10:27:00,31.6,16.0,29.99,SSW,212,3.0,12.0,52,0.00,,,0.00,meteohub,2013-01-02 15:27:00,
2013-01-02 10:32:00,31.8,17.1,29.99,SSW,212,0.0,12.0,54,0.00,,,0.00,meteohub,2013-01-02 15:32:00,
2013-01-02 10:37:00,32.0,17.2,29.99,SW,235,2.0,11.0,54,0.00,,,0.00,meteohub,2013-01-02 15:37:00,
2013-01-02 10:42:00,31.6,16.9,29.99,SSW,212,5.0,8.0,54,0.00,,,0.00,meteohub,2013-01-02 15:42:00,
2013-01-02 10:47:00,31.6,16.5,29.99,WSW,258,3.0,10.0,53,0.00,,,0.00,meteohub,2013-01-02 15:47:00,
2013-01-02 10:52:00,31.8,16.7,29.99,WNW,302,9.0,10.0,53,0.00,,,0.00,meteohub,2013-01-02 15:52:00,
2013-01-02 10:57:00,31.5,15.4,30.01,NW,325,11.0,13.0,51,0.00,,,0.00,meteohub,2013-01-02 15:57:00,
2013-01-02 11:02:00,31.3,14.4,30.01,West,280,9.0,17.0,49,0.00,,,0.00,meteohub,2013-01-02 16:02:00,
2013-01-02 11:07:00,31.3,13.8,30.01,WNW,302,9.0,17.0,48,0.00,,,0.00,meteohub,2013-01-02 16:07:00,
2013-01-02 11:12:00,31.1,13.3,29.99,NW,325,8.0,17.0,47,0.00,,,0.00,meteohub,2013-01-02 16:12:00,
2013-01-02 11:17:00,31.3,13.5,29.99,WSW,258,13.0,14.0,47,0.00,,,0.00,meteohub,2013-01-02 16:17:00,
2013-01-02 11:22:00,31.3,13.8,29.99,NW,325,13.0,14.0,48,0.00,,,0.00,meteohub,2013-01-02 16:22:00,
2013-01-02 11:27:00,31.3,13.8,29.99,NNE,32,6.0,16.0,48,0.00,,,0.00,meteohub,2013-01-02 16:27:00,
2013-01-02 11:32:00,31.1,14.2,29.99,NNW,348,6.0,16.0,49,0.00,,,0.00,meteohub,2013-01-02 16:32:00,
2013-01-02 11:37:00,31.3,14.9,29.99,West,280,0.0,16.0,50,0.00,,,0.00,meteohub,2013-01-02 16:37:00,
2013-01-02 11:42:00,31.6,15.1,29.99,WSW,258,5.0,11.0,50,0.00,,,0.00,meteohub,2013-01-02 16:42:00,
2013-01-02 11:47:00,31.8,15.8,29.99,WSW,258,6.0,15.0,51,0.00,,,0.00,meteohub,2013-01-02 16:47:00,
2013-01-02 11:52:00,32.2,16.2,29.99,WSW,258,6.0,15.0,51,0.00,,,0.00,meteohub,2013-01-02 16:52:00,
2013-01-02 11:57:00,32.2,16.2,29.99,WSW,258,5.0,14.0,51,0.00,,,0.00,meteohub,2013-01-02 16:57:00,
2013-01-02 12:02:00,32.4,16.3,29.99,SSW,212,5.0,14.0,51,0.00,,,0.00,meteohub,2013-01-02 17:02:00,
2013-01-02 12:07:00,32.4,16.3,29.99,WSW,258,0.0,14.0,51,0.00,,,0.00,meteohub,2013-01-02 17:07:00,
2013-01-02 12:12:00,32.2,15.6,29.99,NNE,32,15.0,15.0,50,0.00,,,0.00,meteohub,2013-01-02 17:12:00,
2013-01-02 12:17:00,32.2,15.6,29.99,South,190,0.0,15.0,50,0.00,,,0.00,meteohub,2013-01-02 17:17:00,
2013-01-02 12:22:00,32.5,16.0,29.99,SSE,168,6.0,15.0,50,0.00,,,0.00,meteohub,2013-01-02 17:22:00,
2013-01-02 12:27:00,32.4,15.8,30.01,SSW,212,9.0,16.0,50,0.00,,,0.00,meteohub,2013-01-02 17:27:00,
2013-01-02 12:32:00,32.5,16.0,30.01,NNW,348,4.0,17.0,50,0.00,,,0.00,meteohub,2013-01-02 17:32:00,
2013-01-02 12:37:00,32.7,16.2,30.01,North,10,4.0,17.0,50,0.00,,,0.00,meteohub,2013-01-02 17:37:00,
2013-01-02 12:42:00,32.9,15.4,29.99,North,10,7.0,13.0,48,0.00,,,0.00,meteohub,2013-01-02 17:42:00,
2013-01-02 12:47:00,33.1,16.0,29.99,SSE,168,5.0,11.0,49,0.00,,,0.00,meteohub,2013-01-02 17:47:00,
2013-01-02 12:52:00,33.4,16.9,29.99,WSW,258,6.0,11.0,50,0.00,,,0.00,meteohub,2013-01-02 17:52:00,
2013-01-02 12:57:00,33.4,16.3,29.99,WSW,258,7.0,11.0,49,0.00,,,0.00,meteohub,2013-01-02 17:57:00,
2013-01-02 13:02:00,33.3,15.8,29.99,WSW,258,8.0,9.0,48,0.00,,,0.00,meteohub,2013-01-02 18:02:00,
2013-01-02 13:07:00,33.3,15.8,29.99,WNW,302,3.0,12.0,48,0.00,,,0.00,meteohub,2013-01-02 18:07:00,
2013-01-02 13:12:00,33.3,15.8,29.99,NNW,348,7.0,13.0,48,0.00,,,0.00,meteohub,2013-01-02 18:12:00,
2013-01-02 13:17:00,33.3,15.3,29.99,WNW,302,5.0,13.0,47,0.00,,,0.00,meteohub,2013-01-02 18:17:00,
2013-01-02 13:22:00,33.4,16.0,29.99,WSW,258,3.0,13.0,48,0.00,,,0.00,meteohub,2013-01-02 18:22:00,
2013-01-02 13:27:00,33.6,16.2,29.99,West,280,5.0,13.0,48,0.00,,,0.00,meteohub,2013-01-02 18:27:00,
2013-01-02 13:32:00,33.4,16.0,29.99,ESE,122,3.0,13.0,48,0.00,,,0.00,meteohub,2013-01-02 18:32:00,
2013-01-02 13:37:00,33.4,16.0,29.99,WNW,302,5.0,12.0,48,0.00,,,0.00,meteohub,2013-01-02 18:37:00,
2013-01-02 13:42:00,33.3,15.3,29.99,North,10,9.0,19.0,47,0.00,,,0.00,meteohub,2013-01-02 18:42:00,
2013-01-02 13:47:00,33.3,15.3,29.99,SE,145,7.0,19.0,47,0.00,,,0.00,meteohub,2013-01-02 18:47:00,
2013-01-02 13:52:00,33.4,16.0,29.99,SE,145,6.0,17.0,48,0.00,,,0.00,meteohub,2013-01-02 18:52:00,
2013-01-02 13:57:00,33.3,15.8,29.99,WNW,302,8.0,16.0,48,0.00,,,0.00,meteohub,2013-01-02 18:57:00,
2013-01-02 14:02:00,33.3,15.8,29.99,ENE,78,4.0,11.0,48,0.00,,,0.00,meteohub,2013-01-02 19:02:00,
2013-01-02 14:07:00,33.8,16.7,29.99,SSW,212,4.0,15.0,49,0.00,,,0.00,meteohub,2013-01-02 19:07:00,
2013-01-02 14:12:00,33.8,16.2,30.01,East,100,9.0,15.0,48,0.00,,,0.00,meteohub,2013-01-02 19:12:00,
2013-01-02 14:17:00,33.8,16.2,30.01,SW,235,3.0,9.0,48,0.00,,,0.00,meteohub,2013-01-02 19:17:00,
2013-01-02 14:22:00,33.8,16.2,30.01,WNW,302,3.0,13.0,48,0.00,,,0.00,meteohub,2013-01-02 19:22:00,
2013-01-02 14:27:00,34.0,16.3,29.99,WSW,258,9.0,13.0,48,0.00,,,0.00,meteohub,2013-01-02 19:27:00,
2013-01-02 14:32:00,34.0,16.3,29.99,NNW,348,11.0,13.0,48,0.00,,,0.00,meteohub,2013-01-02 19:32:00,
2013-01-02 14:37:00,34.0,14.9,29.99,WNW,302,5.0,16.0,45,0.00,,,0.00,meteohub,2013-01-02 19:37:00,
2013-01-02 14:42:00,33.8,14.2,29.99,WNW,302,5.0,16.0,44,0.00,,,0.00,meteohub,2013-01-02 19:42:00,
2013-01-02 14:47:00,33.8,13.8,29.99,WNW,302,14.0,16.0,43,0.00,,,0.00,meteohub,2013-01-02 19:47:00,
2013-01-02 14:52:00,33.3,13.3,29.99,NNW,348,8.0,25.0,43,0.00,,,0.00,meteohub,2013-01-02 19:52:00,
2013-01-02 14:57:00,33.4,13.5,29.96,WNW,302,11.0,25.0,43,0.00,,,0.00,meteohub,2013-01-02 19:57:00,
2013-01-02 15:02:00,33.3,12.7,29.96,NNE,32,8.0,25.0,42,0.00,,,0.00,meteohub,2013-01-02 20:02:00,
2013-01-02 15:07:00,33.4,12.9,29.96,NNW,348,6.0,25.0,42,0.00,,,0.00,meteohub,2013-01-02 20:07:00,
2013-01-02 15:12:00,33.4,12.9,29.99,North,10,12.0,21.0,42,0.00,,,0.00,meteohub,2013-01-02 20:12:00,
2013-01-02 15:17:00,33.1,12.0,29.99,WNW,302,6.0,20.0,41,0.00,,,0.00,meteohub,2013-01-02 20:17:00,
2013-01-02 15:22:00,33.3,12.7,29.99,WNW,302,12.0,15.0,42,0.00,,,0.00,meteohub,2013-01-02 20:22:00,
2013-01-02 15:27:00,33.1,12.0,29.99,NNW,348,6.0,19.0,41,0.00,,,0.00,meteohub,2013-01-02 20:27:00,
2013-01-02 15:32:00,33.1,12.0,29.99,SW,235,6.0,19.0,41,0.00,,,0.00,meteohub,2013-01-02 20:32:00,
2013-01-02 15:37:00,33.1,12.6,29.99,WSW,258,11.0,19.0,42,0.00,,,0.00,meteohub,2013-01-02 20:37:00,
2013-01-02 15:42:00,33.1,12.6,29.99,WNW,302,6.0,13.0,42,0.00,,,0.00,meteohub,2013-01-02 20:42:00,
2013-01-02 15:47:00,33.3,12.7,29.99,North,10,2.0,13.0,42,0.00,,,0.00,meteohub,2013-01-02 20:47:00,
2013-01-02 15:52:00,33.3,12.7,29.99,SW,235,2.0,11.0,42,0.00,,,0.00,meteohub,2013-01-02 20:52:00,
2013-01-02 15:57:00,33.3,12.7,29.99,WSW,258,0.0,6.0,42,0.00,,,0.00,meteohub,2013-01-02 20:57:00,
2013-01-02 16:02:00,33.1,12.6,29.99,WNW,302,5.0,10.0,42,0.00,,,0.00,meteohub,2013-01-02 21:02:00,
2013-01-02 16:07:00,32.9,12.4,29.99,North,10,4.0,10.0,42,0.00,,,0.00,meteohub,2013-01-02 21:07:00,
2013-01-02 16:12:00,32.7,12.2,29.99,NNW,348,3.0,8.0,42,0.00,,,0.00,meteohub,2013-01-02 21:12:00,
2013-01-02 16:17:00,32.7,12.2,29.99,South,190,3.0,8.0,42,0.00,,,0.00,meteohub,2013-01-02 21:17:00,
2013-01-02 16:22:00,32.7,12.2,29.99,WNW,302,6.0,8.0,42,0.00,,,0.00,meteohub,2013-01-02 21:22:00,
2013-01-02 16:27:00,32.5,12.0,30.01,West,280,3.0,9.0,42,0.00,,,0.00,meteohub,2013-01-02 21:27:00,
2013-01-02 16:32:00,32.5,12.0,30.01,SW,235,7.0,9.0,42,0.00,,,0.00,meteohub,2013-01-02 21:32:00,
2013-01-02 16:37:00,32.4,11.8,30.01,NNW,348,3.0,9.0,42,0.00,,,0.00,meteohub,2013-01-02 21:37:00,
2013-01-02 16:42:00,32.2,11.7,30.01,NNW,348,5.0,8.0,42,0.00,,,0.00,meteohub,2013-01-02 21:42:00,
2013-01-02 16:47:00,32.2,12.2,30.01,WNW,302,8.0,8.0,43,0.00,,,0.00,meteohub,2013-01-02 21:47:00,
2013-01-02 16:52:00,32.0,11.5,30.01,WNW,302,0.0,9.0,42,0.00,,,0.00,meteohub,2013-01-02 21:52:00,
2013-01-02 16:57:00,32.2,12.2,30.01,SSW,212,0.0,9.0,43,0.00,,,0.00,meteohub,2013-01-02 21:57:00,
2013-01-02 17:02:00,32.2,12.2,30.01,West,280,6.0,9.0,43,0.00,,,0.00,meteohub,2013-01-02 22:02:00,
2013-01-02 17:07:00,31.8,11.8,30.01,WSW,258,9.0,9.0,43,0.00,,,0.00,meteohub,2013-01-02 22:07:00,
2013-01-02 17:12:00,31.6,11.1,30.01,NW,325,5.0,9.0,42,0.00,,,0.00,meteohub,2013-01-02 22:12:00,
2013-01-02 17:17:00,31.5,11.1,30.01,WSW,258,6.0,9.0,42,0.00,,,0.00,meteohub,2013-01-02 22:17:00,
2013-01-02 17:22:00,31.1,11.3,30.01,WNW,302,5.0,9.0,43,0.00,,,0.00,meteohub,2013-01-02 22:22:00,
2013-01-02 17:27:00,31.1,10.8,30.01,NW,325,2.0,12.0,42,0.00,,,0.00,meteohub,2013-01-02 22:27:00,
2013-01-02 17:32:00,31.1,10.8,30.01,WSW,258,6.0,12.0,42,0.00,,,0.00,meteohub,2013-01-02 22:32:00,
2013-01-02 17:37:00,31.1,11.3,30.01,WSW,258,3.0,12.0,43,0.00,,,0.00,meteohub,2013-01-02 22:37:00,
2013-01-02 17:42:00,30.9,11.1,30.01,WSW,258,4.0,7.0,43,0.00,,,0.00,meteohub,2013-01-02 22:42:00,
2013-01-02 17:47:00,30.7,10.9,30.01,SW,235,2.0,11.0,43,0.00,,,0.00,meteohub,2013-01-02 22:47:00,
2013-01-02 17:52:00,30.6,10.8,30.01,SW,235,2.0,11.0,43,0.00,,,0.00,meteohub,2013-01-02 22:52:00,
2013-01-02 17:57:00,30.6,10.8,30.04,SSW,212,4.0,11.0,43,0.00,,,0.00,meteohub,2013-01-02 22:57:00,
2013-01-02 18:02:00,30.6,11.3,30.04,SSW,212,3.0,6.0,44,0.00,,,0.00,meteohub,2013-01-02 23:02:00,
2013-01-02 18:07:00,30.2,10.9,30.04,SSW,212,4.0,6.0,44,0.00,,,0.00,meteohub,2013-01-02 23:07:00,
2013-01-02 18:12:00,30.2,10.9,30.01,ESE,122,2.0,6.0,44,0.00,,,0.00,meteohub,2013-01-02 23:12:00,
2013-01-02 18:17:00,30.2,10.9,30.01,WSW,258,9.0,9.0,44,0.00,,,0.00,meteohub,2013-01-02 23:17:00,
2013-01-02 18:22:00,30.2,10.9,30.01,SE,145,2.0,9.0,44,0.00,,,0.00,meteohub,2013-01-02 23:22:00,
2013-01-02 18:27:00,30.0,10.8,30.01,SSW,212,4.0,9.0,44,0.00,,,0.00,meteohub,2013-01-02 23:27:00,
2013-01-02 18:32:00,30.0,10.8,30.01,South,190,5.0,9.0,44,0.00,,,0.00,meteohub,2013-01-02 23:32:00,
2013-01-02 18:37:00,30.2,11.5,30.01,South,190,0.0,8.0,45,0.00,,,0.00,meteohub,2013-01-02 23:37:00,
2013-01-02 18:42:00,30.0,11.3,30.04,SSE,168,3.0,8.0,45,0.00,,,0.00,meteohub,2013-01-02 23:42:00,
2013-01-02 18:47:00,30.0,11.3,30.04,WNW,302,6.0,8.0,45,0.00,,,0.00,meteohub,2013-01-02 23:47:00,
2013-01-02 18:52:00,29.7,10.9,30.04,WNW,302,2.0,8.0,45,0.00,,,0.00,meteohub,2013-01-02 23:52:00,
2013-01-02 18:57:00,29.7,10.9,30.04,WSW,258,3.0,8.0,45,0.00,,,0.00,meteohub,2013-01-02 23:57:00,
2013-01-02 19:02:00,29.8,11.1,30.04,WSW,258,2.0,8.0,45,0.00,,,0.00,meteohub,2013-01-03 00:02:00,
2013-01-02 19:07:00,29.8,11.7,30.04,WNW,302,5.0,8.0,46,0.00,,,0.00,meteohub,2013-01-03 00:07:00,
2013-01-02 19:12:00,29.5,10.8,30.07,North,10,6.0,6.0,45,0.00,,,0.00,meteohub,2013-01-03 00:12:00,
2013-01-02 19:17:00,29.5,11.3,30.07,WSW,258,5.0,7.0,46,0.00,,,0.00,meteohub,2013-01-03 00:17:00,
2013-01-02 19:22:00,29.7,11.5,30.07,SW,235,0.0,7.0,46,0.00,,,0.00,meteohub,2013-01-03 00:22:00,
2013-01-02 19:27:00,29.7,11.5,30.04,WNW,302,0.0,7.0,46,0.00,,,0.00,meteohub,2013-01-03 00:27:00,
2013-01-02 19:32:00,29.5,11.3,30.04,SW,235,0.0,6.0,46,0.00,,,0.00,meteohub,2013-01-03 00:32:00,
2013-01-02 19:37:00,29.5,11.3,30.04,SSW,212,5.0,8.0,46,0.00,,,0.00,meteohub,2013-01-03 00:37:00,
2013-01-02 19:47:00,29.3,11.7,30.04,SSW,212,5.0,8.0,47,0.00,,,0.00,meteohub,2013-01-03 00:47:00,
2013-01-02 19:52:00,29.3,11.7,30.04,SE,145,0.0,8.0,47,0.00,,,0.00,meteohub,2013-01-03 00:52:00,
2013-01-02 19:57:00,29.3,12.0,30.04,WNW,302,3.0,9.0,48,0.00,,,0.00,meteohub,2013-01-03 00:57:00,
2013-01-02 20:02:00,29.1,11.8,30.04,WNW,302,5.0,9.0,48,0.00,,,0.00,meteohub,2013-01-03 01:02:00,
2013-01-02 20:07:00,29.1,11.8,30.04,SSW,212,2.0,8.0,48,0.00,,,0.00,meteohub,2013-01-03 01:07:00,
2013-01-02 20:17:00,29.1,11.8,30.07,WSW,258,2.0,7.0,48,0.00,,,0.00,meteohub,2013-01-03 01:17:00,
2013-01-02 20:22:00,29.1,11.8,30.07,West,280,3.0,6.0,48,0.00,,,0.00,meteohub,2013-01-03 01:22:00,
2013-01-02 20:27:00,29.3,12.0,30.07,SSW,212,3.0,5.0,48,0.00,,,0.00,meteohub,2013-01-03 01:27:00,
2013-01-02 20:32:00,29.3,12.6,30.07,WSW,258,0.0,5.0,49,0.00,,,0.00,meteohub,2013-01-03 01:32:00,
2013-01-02 20:37:00,29.3,12.6,30.07,WNW,302,0.0,5.0,49,0.00,,,0.00,meteohub,2013-01-03 01:37:00,
2013-01-02 20:42:00,29.1,12.4,30.04,West,280,4.0,7.0,49,0.00,,,0.00,meteohub,2013-01-03 01:42:00,
2013-01-02 20:47:00,29.1,12.4,30.04,SSW,212,0.0,7.0,49,0.00,,,0.00,meteohub,2013-01-03 01:47:00,
2013-01-02 20:52:00,29.1,12.4,30.04,SSW,212,0.0,7.0,49,0.00,,,0.00,meteohub,2013-01-03 01:52:00,
2013-01-02 21:07:00,29.1,12.4,30.07,SW,235,5.0,5.0,49,0.00,,,0.00,meteohub,2013-01-03 02:07:00,
2013-01-02 21:12:00,28.9,12.2,30.07,SSE,168,0.0,5.0,49,0.00,,,0.00,meteohub,2013-01-03 02:12:00,
2013-01-02 21:17:00,28.9,12.7,30.07,SW,235,0.0,5.0,50,0.00,,,0.00,meteohub,2013-01-03 02:17:00,
2013-01-02 21:22:00,28.8,12.6,30.07,WSW,258,0.0,5.0,50,0.00,,,0.00,meteohub,2013-01-03 02:22:00,
2013-01-02 21:27:00,28.8,12.6,30.07,SSW,212,3.0,5.0,50,0.00,,,0.00,meteohub,2013-01-03 02:27:00,
2013-01-02 21:32:00,28.8,12.6,30.07,ESE,122,4.0,5.0,50,0.00,,,0.00,meteohub,2013-01-03 02:32:00,
2013-01-02 21:37:00,28.8,12.9,30.07,ENE,78,0.0,4.0,51,0.00,,,0.00,meteohub,2013-01-03 02:37:00,
2013-01-02 21:42:00,28.8,12.6,30.04,ENE,78,0.0,4.0,50,0.00,,,0.00,meteohub,2013-01-03 02:42:00,
2013-01-02 21:47:00,28.6,12.4,30.04,SE,145,0.0,4.0,50,0.00,,,0.00,meteohub,2013-01-03 02:47:00,
2013-01-02 21:52:00,28.6,12.7,30.04,SE,145,2.0,3.0,51,0.00,,,0.00,meteohub,2013-01-03 02:52:00,
2013-01-02 21:57:00,28.4,13.1,30.07,South,190,2.0,3.0,52,0.00,,,0.00,meteohub,2013-01-03 02:57:00,
2013-01-02 22:02:00,28.4,13.1,30.07,South,190,3.0,4.0,52,0.00,,,0.00,meteohub,2013-01-03 03:02:00,
2013-01-02 22:07:00,28.4,13.1,30.07,South,190,3.0,4.0,52,0.00,,,0.00,meteohub,2013-01-03 03:07:00,
2013-01-02 22:12:00,28.4,13.1,30.04,SSE,168,0.0,3.0,52,0.00,,,0.00,meteohub,2013-01-03 03:12:00,
2013-01-02 22:17:00,28.2,12.9,30.04,SSE,168,0.0,3.0,52,0.00,,,0.00,meteohub,2013-01-03 03:17:00,
2013-01-02 22:22:00,28.2,12.9,30.04,West,280,0.0,3.0,52,0.00,,,0.00,meteohub,2013-01-03 03:22:00,
2013-01-02 22:27:00,28.2,12.9,30.07,SSW,212,0.0,0.0,52,0.00,,,0.00,meteohub,2013-01-03 03:27:00,
2013-01-02 22:32:00,28.0,12.7,30.07,ESE,122,0.0,0.0,52,0.00,,,0.00,meteohub,2013-01-03 03:32:00,
2013-01-02 22:42:00,27.9,12.9,30.07,SE,145,4.0,0.0,53,0.00,,,0.00,meteohub,2013-01-03 03:42:00,
2013-01-02 22:52:00,27.7,12.7,30.07,SE,145,3.0,5.0,53,0.00,,,0.00,meteohub,2013-01-03 03:52:00,
2013-01-02 22:57:00,27.7,12.7,30.07,SSE,168,3.0,5.0,53,0.00,,,0.00,meteohub,2013-01-03 03:57:00,
2013-01-02 23:02:00,27.7,12.7,30.07,SSE,168,2.0,4.0,53,0.00,,,0.00,meteohub,2013-01-03 04:02:00,
2013-01-02 23:07:00,27.5,12.6,30.07,ESE,122,0.0,3.0,53,0.00,,,0.00,meteohub,2013-01-03 04:07:00,
2013-01-02 23:12:00,27.1,12.4,30.07,ENE,78,0.0,3.0,53,0.00,,,0.00,meteohub,2013-01-03 04:12:00,
2013-01-02 23:17:00,27.0,12.2,30.07,ENE,78,0.0,3.0,53,0.00,,,0.00,meteohub,2013-01-03 04:17:00,
2013-01-02 23:22:00,27.0,12.2,30.07,ENE,78,0.0,3.0,53,0.00,,,0.00,meteohub,2013-01-03 04:22:00,
2013-01-02 23:27:00,27.0,12.6,30.07,ENE,78,0.0,0.0,54,0.00,,,0.00,meteohub,2013-01-03 04:27:00,
2013-01-02 23:32:00,27.0,12.6,30.07,SSW,212,0.0,0.0,54,0.00,,,0.00,meteohub,2013-01-03 04:32:00,
2013-01-02 23:37:00,27.0,12.6,30.07,SSW,212,0.0,0.0,54,0.00,,,0.00,meteohub,2013-01-03 04:37:00,
2013-01-02 23:42:00,27.0,12.6,30.07,SW,235,0.0,0.0,54,0.00,,,0.00,meteohub,2013-01-03 04:42:00,
2013-01-02 23:47:00,27.0,12.6,30.07,WNW,302,0.0,0.0,54,0.00,,,0.00,meteohub,2013-01-03 04:47:00,
2013-01-02 23:52:00,27.0,12.2,30.07,WSW,258,0.0,0.0,53,0.00,,,0.00,meteohub,2013-01-03 04:52:00,
2013-01-02 23:57:00,27.0,12.6,30.07,WSW,258,0.0,0.0,54,0.00,,,0.00,meteohub,2013-01-03 04:57:00,